Time;durP1;ratioP1;P1;durP2;ratioP2;P2;SDS_P1;SDS_P2;PMS_P1;PMS_P2;Temp;Humidity;BMP_temperature;BMP_pressure;BME280_temperature;BME280_humidity;BME280_pressure;Samples;Min_cycle;Max_cycle;Signal;HPM_P1;HPM_P2
2022/08/30 00:03:24;;;;;;;8.63;3.30;;;;;;;;;;5055948;28;20605;-76
2022/08/30 00:05:49;;;;;;;8.73;3.53;;;;;;;;;;5056143;28;20048;-76
2022/08/30 00:08:15;;;;;;;9.70;3.78;;;;;;;;;;5056110;28;20379;-75
2022/08/30 00:10:41;;;;;;;7.13;4.22;;;;;;;;;;5054830;28;20151;-75
2022/08/30 00:13:08;;;;;;;6.70;3.72;;;;;;;;;;5054369;28;20398;-75
2022/08/30 00:15:33;;;;;;;7.75;3.60;;;;;;;;;;5055921;28;20524;-74
2022/08/30 00:17:59;;;;;;;8.23;3.70;;;;;;;;;;5054464;28;20032;-74
2022/08/30 00:20:28;;;;;;;7.78;3.90;;;;;;;;;;5055989;28;20405;-74
2022/08/30 00:22:54;;;;;;;9.25;3.38;;;;;;;;;;5054344;28;20055;-74
2022/08/30 00:25:20;;;;;;;6.80;3.72;;;;;;;;;;5055369;28;20025;-74
2022/08/30 00:27:45;;;;;;;7.10;3.42;;;;;;;;;;5055391;28;20512;-74
2022/08/30 00:30:13;;;;;;;7.07;3.30;;;;;;;;;;5055205;28;20021;-75
2022/08/30 00:32:39;;;;;;;11.30;3.88;;;;;;;;;;5055114;28;20029;-75
2022/08/30 00:35:07;;;;;;;11.45;3.65;;;;;;;;;;5055310;28;20483;-75
2022/08/30 00:37:32;;;;;;;7.53;3.55;;;;;;;;;;5055108;28;20581;-76
2022/08/30 00:39:58;;;;;;;9.15;3.58;;;;;;;;;;5053729;28;20155;-76
2022/08/30 00:42:24;;;;;;;4.88;3.28;;;;;;;;;;5054892;28;20029;-75
2022/08/30 00:44:51;;;;;;;7.72;3.58;;;;;;;;;;5054984;28;20108;-74
2022/08/30 00:47:17;;;;;;;8.82;3.85;;;;;;;;;;5054656;28;20429;-75
2022/08/30 00:49:46;;;;;;;5.45;3.80;;;;;;;;;;5055051;28;20032;-74
2022/08/30 00:52:12;;;;;;;6.88;3.45;;;;;;;;;;5054780;28;20067;-75
2022/08/30 00:54:40;;;;;;;6.82;3.80;;;;;;;;;;5054565;28;20028;-75
2022/08/30 00:57:06;;;;;;;12.50;3.83;;;;;;;;;;5054895;28;20027;-74
2022/08/30 00:59:32;;;;;;;7.93;3.65;;;;;;;;;;5053082;28;20115;-75
2022/08/30 01:01:59;;;;;;;7.28;3.58;;;;;;;;;;5054346;28;20029;-75
2022/08/30 01:04:25;;;;;;;5.68;3.55;;;;;;;;;;5054161;28;20048;-75
2022/08/30 01:06:52;;;;;;;5.93;3.40;;;;;;;;;;5054660;28;20104;-75
2022/08/30 01:09:17;;;;;;;7.32;3.58;;;;;;;;;;5054336;28;20566;-75
2022/08/30 01:11:44;;;;;;;4.72;3.20;;;;;;;;;;5054210;28;20056;-75
2022/08/30 01:14:11;;;;;;;6.22;3.35;;;;;;;;;;5054608;28;20047;-75
2022/08/30 01:16:40;;;;;;;3.92;3.25;;;;;;;;;;5054247;28;20533;-74
2022/08/30 01:19:17;;;;;;;9.30;3.90;;;;;;;;;;5055094;28;20043;-75
2022/08/30 01:21:48;;;;;;;5.85;3.80;;;;;;;;;;5053484;28;20060;-75
2022/08/30 01:24:14;;;;;;;10.80;3.78;;;;;;;;;;5055087;28;20029;-75
2022/08/30 01:26:40;;;;;;;7.25;4.05;;;;;;;;;;5055182;28;20032;-75
2022/08/30 01:29:09;;;;;;;10.75;3.90;;;;;;;;;;5055351;28;20025;-74
2022/08/30 01:31:35;;;;;;;6.60;3.70;;;;;;;;;;5054296;28;20029;-75
2022/08/30 01:34:06;;;;;;;7.35;3.58;;;;;;;;;;5053795;28;20028;-75
2022/08/30 01:36:34;;;;;;;9.35;3.80;;;;;;;;;;5053184;28;20024;-75
2022/08/30 01:39:00;;;;;;;9.68;3.88;;;;;;;;;;5053909;28;20078;-75
2022/08/30 01:41:30;;;;;;;6.15;3.58;;;;;;;;;;5053949;28;20025;-75
2022/08/30 01:43:58;;;;;;;4.55;3.38;;;;;;;;;;5054051;28;20025;-75
2022/08/30 01:46:26;;;;;;;6.63;3.58;;;;;;;;;;5053838;28;20393;-74
2022/08/30 01:48:54;;;;;;;6.80;3.75;;;;;;;;;;5053994;28;20020;-74
2022/08/30 01:51:22;;;;;;;8.27;3.75;;;;;;;;;;5052531;28;20120;-74
2022/08/30 01:53:47;;;;;;;9.45;3.75;;;;;;;;;;5053561;28;20572;-74
2022/08/30 01:56:14;;;;;;;6.50;3.63;;;;;;;;;;5053523;28;20057;-74
2022/08/30 01:58:40;;;;;;;5.00;3.80;;;;;;;;;;5053909;28;20289;-74
2022/08/30 02:01:11;;;;;;;6.60;3.67;;;;;;;;;;5053699;28;20029;-75
2022/08/30 02:03:36;;;;;;;7.22;3.53;;;;;;;;;;5053341;28;20013;-75
2022/08/30 02:06:08;;;;;;;7.95;4.00;;;;;;;;;;5053670;28;20025;-74
2022/08/30 02:08:34;;;;;;;6.97;3.65;;;;;;;;;;5054367;28;20033;-75
2022/08/30 02:11:00;;;;;;;7.30;3.70;;;;;;;;;;5053767;28;20478;-75
2022/08/30 02:13:26;;;;;;;5.95;3.25;;;;;;;;;;5053427;28;20081;-75
2022/08/30 02:15:53;;;;;;;8.10;3.55;;;;;;;;;;5053730;28;20036;-74
2022/08/30 02:18:19;;;;;;;9.93;3.95;;;;;;;;;;5053864;28;20100;-75
2022/08/30 02:20:44;;;;;;;4.97;3.60;;;;;;;;;;5053851;28;20052;-75
2022/08/30 02:23:09;;;;;;;9.00;3.97;;;;;;;;;;5053491;28;20021;-75
2022/08/30 02:25:34;;;;;;;6.07;3.33;;;;;;;;;;5053343;28;20281;-75
2022/08/30 02:28:00;;;;;;;7.25;3.95;;;;;;;;;;5053431;28;20254;-75
2022/08/30 02:30:25;;;;;;;6.53;3.80;;;;;;;;;;5053494;28;20454;-75
2022/08/30 02:32:51;;;;;;;8.02;4.00;;;;;;;;;;5053551;28;20613;-75
2022/08/30 02:35:16;;;;;;;8.07;3.70;;;;;;;;;;5053596;28;20063;-75
2022/08/30 02:37:41;;;;;;;5.55;3.55;;;;;;;;;;5054239;28;20021;-75
2022/08/30 02:40:07;;;;;;;7.80;3.97;;;;;;;;;;5052470;28;20120;-75
2022/08/30 02:42:32;;;;;;;7.32;3.38;;;;;;;;;;5052600;28;20103;-75
2022/08/30 02:44:59;;;;;;;7.20;3.63;;;;;;;;;;5053453;28;20025;-75
2022/08/30 02:47:24;;;;;;;5.32;3.53;;;;;;;;;;5055535;28;20521;-75
2022/08/30 02:49:49;;;;;;;6.70;3.70;;;;;;;;;;5056340;28;20037;-75
2022/08/30 02:52:14;;;;;;;7.20;3.37;;;;;;;;;;5057518;28;20289;-75
2022/08/30 02:54:39;;;;;;;7.07;3.77;;;;;;;;;;5056154;28;20266;-75
2022/08/30 02:57:05;;;;;;;10.77;4.10;;;;;;;;;;5057857;28;20269;-75
2022/08/30 02:59:31;;;;;;;4.90;3.88;;;;;;;;;;5057496;28;20269;-75
2022/08/30 03:01:56;;;;;;;5.90;3.47;;;;;;;;;;5057383;28;20024;-74
2022/08/30 03:04:22;;;;;;;8.45;3.67;;;;;;;;;;5057111;28;20112;-75
2022/08/30 03:06:47;;;;;;;5.97;3.67;;;;;;;;;;5057138;28;20021;-74
2022/08/30 03:09:13;;;;;;;5.95;3.88;;;;;;;;;;5057919;28;20028;-75
2022/08/30 03:11:38;;;;;;;5.60;3.70;;;;;;;;;;5058285;28;20074;-74
2022/08/30 03:14:03;;;;;;;5.95;3.80;;;;;;;;;;5057750;28;20316;-74
2022/08/30 03:16:28;;;;;;;6.03;3.58;;;;;;;;;;5057561;28;20017;-75
2022/08/30 03:18:54;;;;;;;5.85;3.50;;;;;;;;;;5056973;28;20438;-75
2022/08/30 03:21:19;;;;;;;6.93;4.05;;;;;;;;;;5055644;28;20032;-74
2022/08/30 03:23:44;;;;;;;7.17;4.00;;;;;;;;;;5057042;28;20017;-74
2022/08/30 03:26:13;;;;;;;6.35;3.70;;;;;;;;;;5055454;28;20254;-74
2022/08/30 03:28:39;;;;;;;9.15;3.83;;;;;;;;;;5055091;28;20474;-74
2022/08/30 03:31:04;;;;;;;5.82;3.83;;;;;;;;;;5055087;28;20033;-75
2022/08/30 03:33:30;;;;;;;6.88;3.80;;;;;;;;;;5056096;28;20028;-74
2022/08/30 03:35:55;;;;;;;6.20;3.72;;;;;;;;;;5054791;28;20028;-75
2022/08/30 03:38:20;;;;;;;6.93;3.90;;;;;;;;;;5056147;28;20025;-75
2022/08/30 03:40:45;;;;;;;6.73;3.77;;;;;;;;;;5056410;28;20261;-75
2022/08/30 03:43:11;;;;;;;5.32;3.47;;;;;;;;;;5056076;28;20263;-76
2022/08/30 03:45:36;;;;;;;5.80;3.50;;;;;;;;;;5056305;28;20098;-75
2022/08/30 03:48:02;;;;;;;7.13;3.67;;;;;;;;;;5056255;28;20052;-75
2022/08/30 03:50:28;;;;;;;5.68;3.58;;;;;;;;;;5056293;28;20055;-75
2022/08/30 03:52:54;;;;;;;5.32;3.90;;;;;;;;;;5055954;28;20021;-76
2022/08/30 03:55:19;;;;;;;5.35;3.95;;;;;;;;;;5056081;28;20083;-75
2022/08/30 03:57:45;;;;;;;6.15;3.90;;;;;;;;;;5055554;28;20029;-75
2022/08/30 04:00:12;;;;;;;6.40;3.80;;;;;;;;;;5055402;28;20033;-75
2022/08/30 04:02:39;;;;;;;7.57;3.50;;;;;;;;;;5054292;28;20021;-75
2022/08/30 04:05:05;;;;;;;5.50;3.55;;;;;;;;;;5055568;28;20071;-75
2022/08/30 04:07:30;;;;;;;6.78;3.78;;;;;;;;;;5054416;28;20029;-74
2022/08/30 04:09:55;;;;;;;7.70;3.70;;;;;;;;;;5055815;28;20496;-75
2022/08/30 04:12:21;;;;;;;6.28;4.15;;;;;;;;;;5055438;28;20017;-75
2022/08/30 04:14:46;;;;;;;7.67;4.07;;;;;;;;;;5055954;28;20017;-74
2022/08/30 04:17:11;;;;;;;7.27;3.57;;;;;;;;;;5054518;28;20269;-74
2022/08/30 04:19:36;;;;;;;6.70;3.67;;;;;;;;;;5055485;28;20258;-74
2022/08/30 04:22:01;;;;;;;5.57;3.60;;;;;;;;;;5056125;28;20250;-74
2022/08/30 04:24:27;;;;;;;8.27;3.38;;;;;;;;;;5055498;28;20341;-75
2022/08/30 04:26:52;;;;;;;4.45;3.15;;;;;;;;;;5054125;28;20028;-75
2022/08/30 04:29:17;;;;;;;5.97;3.50;;;;;;;;;;5055502;28;20052;-76
2022/08/30 04:31:44;;;;;;;5.95;3.45;;;;;;;;;;5054033;28;20032;-76
2022/08/30 04:34:10;;;;;;;6.35;3.42;;;;;;;;;;5055743;28;20025;-75
2022/08/30 04:36:35;;;;;;;6.53;3.65;;;;;;;;;;5054106;28;20056;-75
2022/08/30 04:39:00;;;;;;;6.60;3.97;;;;;;;;;;5055261;28;20032;-74
2022/08/30 04:41:26;;;;;;;7.33;3.57;;;;;;;;;;5053860;28;20254;-75
2022/08/30 04:43:51;;;;;;;5.20;3.50;;;;;;;;;;5054254;28;20253;-75
2022/08/30 04:46:17;;;;;;;5.28;3.58;;;;;;;;;;5056318;28;20250;-75
2022/08/30 04:48:44;;;;;;;10.27;3.70;;;;;;;;;;5054633;28;20074;-75
2022/08/30 04:51:13;;;;;;;5.47;3.95;;;;;;;;;;5056360;28;20385;-75
2022/08/30 04:53:39;;;;;;;5.95;3.78;;;;;;;;;;5055212;28;20032;-76
2022/08/30 04:56:09;;;;;;;5.35;3.40;;;;;;;;;;5055213;28;20025;-75
2022/08/30 04:58:35;;;;;;;5.28;3.70;;;;;;;;;;5054129;28;20112;-75
2022/08/30 05:01:00;;;;;;;5.50;3.58;;;;;;;;;;5055479;28;20064;-74
2022/08/30 05:03:25;;;;;;;7.28;3.83;;;;;;;;;;5055051;28;20097;-74
2022/08/30 05:05:51;;;;;;;4.63;3.63;;;;;;;;;;5054952;28;20486;-75
2022/08/30 05:08:18;;;;;;;5.97;3.88;;;;;;;;;;5055234;28;20500;-75
2022/08/30 05:10:47;;;;;;;4.28;3.25;;;;;;;;;;5054818;28;20028;-74
2022/08/30 05:13:13;;;;;;;8.02;3.78;;;;;;;;;;5054629;28;20025;-75
2022/08/30 05:15:39;;;;;;;5.70;3.70;;;;;;;;;;5055070;28;20056;-75
2022/08/30 05:18:07;;;;;;;5.47;3.70;;;;;;;;;;5055718;28;20053;-74
2022/08/30 05:20:33;;;;;;;9.45;3.60;;;;;;;;;;5054906;28;20029;-75
2022/08/30 05:22:59;;;;;;;5.75;3.65;;;;;;;;;;5055285;28;20100;-75
2022/08/30 05:25:28;;;;;;;5.43;3.90;;;;;;;;;;5055101;28;20079;-74
2022/08/30 05:27:53;;;;;;;9.63;3.85;;;;;;;;;;5054306;28;20258;-75
2022/08/30 05:30:20;;;;;;;7.15;3.47;;;;;;;;;;5054179;28;20067;-75
2022/08/30 05:32:46;;;;;;;5.70;3.80;;;;;;;;;;5054139;28;20029;-74
2022/08/30 05:35:13;;;;;;;7.38;3.42;;;;;;;;;;5054274;28;20040;-74
2022/08/30 05:37:39;;;;;;;5.57;3.55;;;;;;;;;;5052809;28;20024;-74
2022/08/30 05:40:05;;;;;;;5.70;3.72;;;;;;;;;;5054144;28;20051;-75
2022/08/30 05:42:31;;;;;;;4.40;3.13;;;;;;;;;;5052414;28;20080;-74
2022/08/30 05:44:57;;;;;;;5.15;3.72;;;;;;;;;;5053952;28;20555;-74
2022/08/30 05:47:22;;;;;;;4.20;3.45;;;;;;;;;;5053963;28;20063;-74
2022/08/30 05:49:47;;;;;;;6.95;3.38;;;;;;;;;;5053093;28;20022;-75
2022/08/30 05:52:16;;;;;;;6.43;3.50;;;;;;;;;;5053837;28;20029;-75
2022/08/30 05:54:42;;;;;;;5.38;3.30;;;;;;;;;;5052826;28;20036;-72
2022/08/30 05:57:07;;;;;;;6.47;3.50;;;;;;;;;;5054407;28;20494;-74
2022/08/30 05:59:32;;;;;;;4.85;3.80;;;;;;;;;;5053273;28;20024;-74
2022/08/30 06:01:58;;;;;;;5.07;3.50;;;;;;;;;;5053644;28;20013;-75
2022/08/30 06:04:24;;;;;;;6.28;3.63;;;;;;;;;;5053633;28;20509;-74
2022/08/30 06:06:50;;;;;;;8.63;3.75;;;;;;;;;;5051805;28;20486;-74
2022/08/30 06:09:16;;;;;;;5.63;3.63;;;;;;;;;;5053151;28;20029;-74
2022/08/30 06:11:42;;;;;;;5.80;3.75;;;;;;;;;;5053266;28;20094;-74
2022/08/30 06:14:07;;;;;;;5.88;3.97;;;;;;;;;;5053613;28;20037;-74
2022/08/30 06:16:34;;;;;;;5.93;3.53;;;;;;;;;;5053855;28;20036;-74
2022/08/30 06:19:00;;;;;;;8.38;3.78;;;;;;;;;;5054426;28;20029;-73
2022/08/30 06:21:32;;;;;;;7.10;3.97;;;;;;;;;;5052936;28;20036;-74
2022/08/30 06:23:58;;;;;;;8.93;3.60;;;;;;;;;;5054256;28;20071;-76
2022/08/30 06:26:24;;;;;;;5.40;3.70;;;;;;;;;;5052711;28;20385;-74
2022/08/30 06:28:50;;;;;;;5.55;3.30;;;;;;;;;;5054201;28;20276;-75
2022/08/30 06:31:17;;;;;;;7.38;3.80;;;;;;;;;;5051971;28;20474;-74
2022/08/30 06:33:43;;;;;;;6.57;3.75;;;;;;;;;;5053189;28;20453;-75
2022/08/30 06:36:12;;;;;;;5.38;3.20;;;;;;;;;;5052130;28;20025;-75
2022/08/30 06:38:38;;;;;;;3.33;2.75;;;;;;;;;;5053934;28;20032;-75
2022/08/30 06:41:13;;;;;;;5.53;3.10;;;;;;;;;;5053442;28;20021;-75
2022/08/30 06:43:39;;;;;;;5.70;3.20;;;;;;;;;;5051512;28;20025;-76
2022/08/30 06:46:07;;;;;;;5.93;3.30;;;;;;;;;;5052879;28;20108;-75
2022/08/30 06:48:32;;;;;;;4.72;3.13;;;;;;;;;;5052969;28;20513;-75
2022/08/30 06:50:58;;;;;;;9.05;3.28;;;;;;;;;;5053006;28;20057;-76
2022/08/30 06:53:23;;;;;;;7.90;3.80;;;;;;;;;;5051503;28;20120;-75
2022/08/30 06:56:00;;;;;;;4.53;3.45;;;;;;;;;;5052848;28;20025;-75
2022/08/30 06:58:27;;;;;;;8.68;3.28;;;;;;;;;;5052850;28;20394;-76
2022/08/30 07:00:52;;;;;;;5.65;3.45;;;;;;;;;;5051305;28;20028;-75
2022/08/30 07:03:18;;;;;;;6.97;3.50;;;;;;;;;;5052688;28;20025;-75
2022/08/30 07:05:43;;;;;;;6.57;3.75;;;;;;;;;;5052882;28;20131;-75
2022/08/30 07:08:08;;;;;;;6.47;3.30;;;;;;;;;;5052996;28;20524;-75
2022/08/30 07:10:37;;;;;;;6.23;3.40;;;;;;;;;;5053048;28;20021;-75
2022/08/30 07:13:02;;;;;;;5.05;3.22;;;;;;;;;;5052919;28;20318;-75
2022/08/30 07:15:27;;;;;;;8.53;3.50;;;;;;;;;;5053415;28;20392;-75
2022/08/30 07:20:37;;;;;;;5.03;3.30;;;;;;;;;;5054644;28;20032;-79
2022/08/30 07:23:02;;;;;;;9.10;3.70;;;;;;;;;;5053216;28;20033;-76
2022/08/30 07:25:27;;;;;;;4.47;3.42;;;;;;;;;;5054332;28;20029;-80
2022/08/30 07:27:53;;;;;;;5.45;3.58;;;;;;;;;;5053288;28;20032;-76
2022/08/30 07:30:18;;;;;;;7.03;3.72;;;;;;;;;;5053291;28;20090;-76
2022/08/30 07:32:44;;;;;;;6.95;3.40;;;;;;;;;;5052942;28;20028;-75
2022/08/30 07:35:09;;;;;;;5.90;3.35;;;;;;;;;;5057164;28;20508;-74
2022/08/30 07:37:34;;;;;;;4.45;3.33;;;;;;;;;;5056366;28;20017;-75
2022/08/30 07:40:00;;;;;;;8.30;3.60;;;;;;;;;;5055308;28;20021;-75
2022/08/30 07:42:25;;;;;;;4.53;3.30;;;;;;;;;;5055130;28;20083;-75
2022/08/30 07:44:50;;;;;;;7.07;2.97;;;;;;;;;;5056295;28;20120;-76
2022/08/30 07:47:16;;;;;;;4.10;3.27;;;;;;;;;;5056917;28;20274;-75
2022/08/30 07:49:41;;;;;;;6.03;3.80;;;;;;;;;;5056368;28;20300;-76
2022/08/30 07:52:06;;;;;;;6.15;3.55;;;;;;;;;;5056740;28;20021;-75
2022/08/30 07:54:32;;;;;;;6.32;3.45;;;;;;;;;;5054980;28;20021;-75
2022/08/30 07:56:57;;;;;;;5.75;3.13;;;;;;;;;;5055177;28;20446;-75
2022/08/30 07:59:22;;;;;;;6.10;3.78;;;;;;;;;;5056250;28;20078;-76
2022/08/30 08:01:48;;;;;;;8.00;3.83;;;;;;;;;;5055155;28;20021;-76
2022/08/30 08:04:16;;;;;;;4.47;3.28;;;;;;;;;;5054585;28;20268;-76
2022/08/30 08:06:41;;;;;;;5.05;3.25;;;;;;;;;;5054275;28;20036;-74
2022/08/30 08:09:07;;;;;;;5.55;3.67;;;;;;;;;;5055946;28;20394;-75
2022/08/30 08:11:34;;;;;;;3.83;3.20;;;;;;;;;;5055517;28;20082;-74
2022/08/30 08:14:00;;;;;;;5.72;3.55;;;;;;;;;;5055724;28;20029;-73
2022/08/30 08:16:29;;;;;;;4.20;2.75;;;;;;;;;;5055529;28;20048;-75
2022/08/30 08:18:54;;;;;;;7.53;3.40;;;;;;;;;;5054112;28;20025;-76
2022/08/30 08:21:22;;;;;;;8.48;2.97;;;;;;;;;;5056064;28;20027;-75
2022/08/30 08:23:47;;;;;;;5.47;3.45;;;;;;;;;;5055464;28;20032;-75
2022/08/30 08:26:13;;;;;;;9.88;3.63;;;;;;;;;;5055733;28;20029;-76
2022/08/30 08:28:39;;;;;;;5.15;3.10;;;;;;;;;;5055529;28;20029;-75
2022/08/30 08:31:19;;;;;;;11.48;3.78;;;;;;;;;;5055478;28;20029;-75
2022/08/30 08:33:45;;;;;;;5.05;3.25;;;;;;;;;;5055441;28;20025;-76
2022/08/30 08:36:10;;;;;;;7.80;3.65;;;;;;;;;;5055138;28;20021;-76
2022/08/30 08:38:35;;;;;;;7.15;3.30;;;;;;;;;;5055279;28;20390;-76
2022/08/30 08:41:19;;;;;;;8.48;3.45;;;;;;;;;;5055502;28;20025;-75
2022/08/30 08:43:44;;;;;;;7.20;3.20;;;;;;;;;;5055839;28;20045;-75
2022/08/30 08:46:29;;;;;;;8.60;3.67;;;;;;;;;;5054932;28;20021;-75
2022/08/30 08:48:59;;;;;;;5.80;3.20;;;;;;;;;;5055472;28;20119;-76
2022/08/30 08:54:31;;;;;;;5.78;3.10;;;;;;;;;;5055569;28;20036;-75
2022/08/30 08:56:57;;;;;;;3.88;2.83;;;;;;;;;;5055243;28;20064;-75
2022/08/30 08:59:23;;;;;;;5.40;2.95;;;;;;;;;;5055101;28;20048;-76
2022/08/30 09:01:49;;;;;;;6.63;3.65;;;;;;;;;;5055093;28;20092;-76
2022/08/30 09:04:19;;;;;;;6.78;3.40;;;;;;;;;;5054705;28;20025;-75
2022/08/30 09:06:51;;;;;;;9.27;3.10;;;;;;;;;;5053798;28;20386;-75
2022/08/30 09:09:20;;;;;;;5.13;3.03;;;;;;;;;;5054383;28;20082;-74
2022/08/30 09:11:46;;;;;;;3.42;2.83;;;;;;;;;;5054251;28;20055;-75
2022/08/30 09:14:17;;;;;;;7.28;3.10;;;;;;;;;;5054719;28;20401;-74
2022/08/30 09:17:00;;;;;;;4.65;3.00;;;;;;;;;;5052883;28;20021;-75
2022/08/30 09:19:38;;;;;;;4.25;3.10;;;;;;;;;;5053298;28;20078;-75
2022/08/30 09:22:28;;;;;;;6.07;3.00;;;;;;;;;;5055022;28;20021;-75
2022/08/30 09:25:07;;;;;;;5.72;2.85;;;;;;;;;;5054775;28;20028;-74
2022/08/30 09:27:42;;;;;;;6.45;3.00;;;;;;;;;;5054773;28;20440;-75
2022/08/30 09:30:18;;;;;;;5.13;3.10;;;;;;;;;;5053100;28;20025;-74
2022/08/30 09:32:59;;;;;;;6.72;3.20;;;;;;;;;;5053579;28;20032;-76
2022/08/30 09:35:45;;;;;;;4.82;2.67;;;;;;;;;;5054798;28;20490;-75
2022/08/30 09:38:17;;;;;;;6.80;3.10;;;;;;;;;;5054591;28;20024;-74
2022/08/30 09:40:46;;;;;;;5.85;2.72;;;;;;;;;;5053616;28;20382;-73
2022/08/30 09:43:31;;;;;;;5.28;2.50;;;;;;;;;;5054623;28;20044;-75
2022/08/30 09:45:59;;;;;;;4.88;2.60;;;;;;;;;;5054711;28;20021;-76
2022/08/30 09:48:43;;;;;;;6.75;2.70;;;;;;;;;;5054347;28;20025;-76
2022/08/30 09:51:11;;;;;;;4.18;3.00;;;;;;;;;;5054124;28;20021;-76
2022/08/30 09:53:52;;;;;;;6.57;2.75;;;;;;;;;;5052851;28;20036;-76
2022/08/30 09:56:29;;;;;;;5.90;2.95;;;;;;;;;;5053038;28;20402;-75
2022/08/30 09:59:26;;;;;;;4.68;3.00;;;;;;;;;;5053183;28;20020;-75
2022/08/30 10:02:17;;;;;;;4.45;2.95;;;;;;;;;;5054653;28;20017;-76
2022/08/30 10:04:51;;;;;;;3.92;2.60;;;;;;;;;;5054345;28;20032;-76
2022/08/30 10:07:40;;;;;;;;;;;;;;;;;;5054669;28;20024;-75
2022/08/30 10:10:24;;;;;;;5.68;2.70;;;;;;;;;;5050221;28;19990;-76
2022/08/30 10:12:55;;;;;;;4.45;2.85;;;;;;;;;;5053927;28;20029;-75
2022/08/30 10:15:26;;;;;;;6.88;2.40;;;;;;;;;;5053835;28;20071;-75
2022/08/30 10:18:05;;;;;;;4.53;2.35;;;;;;;;;;5053477;28;20036;-75
2022/08/30 10:20:45;;;;;;;3.00;2.20;;;;;;;;;;5052032;28;20111;-76
2022/08/30 10:23:20;;;;;;;2.95;1.98;;;;;;;;;;5052117;28;20027;-76
2022/08/30 10:26:15;;;;;;;3.50;2.28;;;;;;;;;;5052014;28;20029;-75
2022/08/30 10:28:57;;;;;;;3.75;2.17;;;;;;;;;;5053555;28;20049;-75
2022/08/30 10:31:27;;;;;;;4.28;1.90;;;;;;;;;;5053425;28;20487;-76
2022/08/30 10:33:59;;;;;;;4.07;1.90;;;;;;;;;;5053669;28;20509;-76
2022/08/30 10:36:34;;;;;;;3.38;2.13;;;;;;;;;;5053438;28;20487;-76
2022/08/30 10:39:01;;;;;;;4.20;2.10;;;;;;;;;;5052454;28;20389;-74
2022/08/30 10:41:26;;;;;;;4.13;2.00;;;;;;;;;;5053601;28;20032;-75
2022/08/30 10:44:33;;;;;;;5.13;2.20;;;;;;;;;;5053829;28;20021;-75
2022/08/30 10:47:39;;;;;;;2.72;1.98;;;;;;;;;;5054054;28;20052;-74
2022/08/30 10:50:41;;;;;;;3.13;2.10;;;;;;;;;;5051866;28;20028;-74
2022/08/30 10:53:14;;;;;;;4.07;1.95;;;;;;;;;;5035296;28;20025;-76
2022/08/30 10:55:47;;;;;;;4.03;2.20;;;;;;;;;;5054020;28;20037;-74
2022/08/30 10:58:15;;;;;;;5.13;2.17;;;;;;;;;;5054105;28;20025;-76
2022/08/30 11:01:01;;;;;;;5.68;2.03;;;;;;;;;;5054014;28;20453;-76
2022/08/30 11:04:17;;;;;;;2.95;2.00;;;;;;;;;;5054049;28;20521;-76
2022/08/30 11:06:46;;;;;;;3.15;1.90;;;;;;;;;;5043888;28;20041;-74
2022/08/30 11:09:36;;;;;;;4.47;2.30;;;;;;;;;;5055925;28;20071;-75
2022/08/30 11:12:31;;;;;;;2.72;2.15;;;;;;;;;;5057665;28;20033;-74
2022/08/30 11:14:57;;;;;;;4.22;2.20;;;;;;;;;;5057544;28;20103;-76
2022/08/30 11:17:24;;;;;;;3.65;1.88;;;;;;;;;;5057022;28;20060;-75
2022/08/30 11:19:50;;;;;;;3.47;1.90;;;;;;;;;;5057319;28;20367;-75
2022/08/30 11:22:23;;;;;;;3.15;1.98;;;;;;;;;;5055824;28;20024;-73
2022/08/30 11:25:13;;;;;;;3.75;1.92;;;;;;;;;;5055980;28;20028;-74
2022/08/30 11:27:55;;;;;;;4.25;2.03;;;;;;;;;;5057603;28;20518;-76
2022/08/30 11:30:23;;;;;;;2.95;1.88;;;;;;;;;;5057077;28;20470;-75
2022/08/30 11:33:00;;;;;;;4.65;2.08;;;;;;;;;;5057489;28;20470;-76
2022/08/30 11:35:41;;;;;;;4.10;2.00;;;;;;;;;;5055485;28;20169;-76
2022/08/30 11:38:15;;;;;;;3.42;2.05;;;;;;;;;;5057213;28;20029;-75
2022/08/30 11:40:52;;;;;;;3.80;2.03;;;;;;;;;;5056620;28;20478;-76
2022/08/30 11:43:38;;;;;;;4.07;1.98;;;;;;;;;;5056948;28;20029;-75
2022/08/30 11:46:25;;;;;;;2.63;1.90;;;;;;;;;;5054764;28;20029;-75
2022/08/30 11:49:12;;;;;;;5.10;1.90;;;;;;;;;;5055275;28;20051;-76
2022/08/30 11:52:04;;;;;;;5.18;2.05;;;;;;;;;;5056436;28;20393;-75
2022/08/30 11:54:45;;;;;;;4.50;2.20;;;;;;;;;;5056851;28;20025;-75
2022/08/30 11:57:28;;;;;;;3.42;2.10;;;;;;;;;;5056992;28;20424;-75
2022/08/30 12:00:07;;;;;;;3.05;1.92;;;;;;;;;;5055757;28;20024;-76
2022/08/30 12:02:55;;;;;;;5.38;1.98;;;;;;;;;;5056504;28;20017;-75
2022/08/30 12:05:38;;;;;;;4.53;1.80;;;;;;;;;;5056136;28;20025;-75
2022/08/30 12:08:06;;;;;;;4.22;2.20;;;;;;;;;;5054560;28;20028;-75
2022/08/30 12:10:39;;;;;;;3.22;2.20;;;;;;;;;;5056068;28;20041;-76
2022/08/30 12:13:05;;;;;;;5.72;2.00;;;;;;;;;;5056631;28;20025;-75
2022/08/30 12:15:54;;;;;;;3.08;2.00;;;;;;;;;;5056115;28;20025;-76
2022/08/30 12:18:26;;;;;;;3.75;2.00;;;;;;;;;;5056129;28;20025;-76
2022/08/30 12:20:53;;;;;;;1.77;1.50;;;;;;;;;;5055217;28;20134;-75
2022/08/30 12:23:30;;;;;;;2.80;1.80;;;;;;;;;;5055853;28;20025;-75
2022/08/30 12:26:08;;;;;;;4.13;1.90;;;;;;;;;;5055092;28;20119;-76
2022/08/30 12:28:34;;;;;;;3.63;2.00;;;;;;;;;;5056024;28;20062;-76
2022/08/30 12:31:09;;;;;;;3.37;2.10;;;;;;;;;;5054950;28;20025;-76
2022/08/30 12:33:41;;;;;;;2.95;2.10;;;;;;;;;;5055990;28;20638;-77
2022/08/30 12:36:11;;;;;;;4.53;2.17;;;;;;;;;;5054877;28;20068;-76
2022/08/30 12:38:37;;;;;;;3.75;2.20;;;;;;;;;;5056314;28;20021;-76
2022/08/30 12:41:02;;;;;;;4.83;2.60;;;;;;;;;;5056453;28;20020;-75
2022/08/30 12:43:37;;;;;;;4.25;2.42;;;;;;;;;;5054659;28;20266;-76
2022/08/30 12:46:08;;;;;;;4.05;2.30;;;;;;;;;;5055169;28;20025;-76
2022/08/30 12:48:39;;;;;;;4.57;2.55;;;;;;;;;;5055753;28;20024;-75
2022/08/30 12:51:05;;;;;;;7.13;2.83;;;;;;;;;;5056223;28;20021;-75
2022/08/30 12:53:35;;;;;;;6.85;3.05;;;;;;;;;;5055700;28;20497;-76
2022/08/30 12:56:04;;;;;;;6.10;2.60;;;;;;;;;;5055801;28;20553;-75
2022/08/30 12:58:48;;;;;;;4.00;2.50;;;;;;;;;;5055635;28;20033;-76
2022/08/30 13:01:17;;;;;;;3.45;2.35;;;;;;;;;;5055526;28;20417;-75
2022/08/30 13:03:53;;;;;;;5.20;2.30;;;;;;;;;;5054044;28;20048;-76
2022/08/30 13:06:36;;;;;;;6.90;2.30;;;;;;;;;;5055039;28;20024;-75
2022/08/30 13:09:01;;;;;;;3.67;2.23;;;;;;;;;;5054307;28;20039;-75
2022/08/30 13:11:27;;;;;;;3.87;2.17;;;;;;;;;;5054155;28;20345;-75
2022/08/30 13:14:20;;;;;;;3.13;2.20;;;;;;;;;;5054400;28;20270;-76
2022/08/30 13:16:45;;;;;;;3.22;2.15;;;;;;;;;;5055206;28;20037;-75
2022/08/30 13:19:34;;;;;;;4.75;2.40;;;;;;;;;;5054288;28;20021;-75
2022/08/30 13:22:00;;;;;;;2.72;2.40;;;;;;;;;;5055027;28;20021;-75
2022/08/30 13:24:26;;;;;;;2.92;2.03;;;;;;;;;;5054666;28;20411;-75
2022/08/30 13:27:02;;;;;;;3.33;2.30;;;;;;;;;;5054753;28;20025;-75
2022/08/30 13:29:28;;;;;;;6.63;1.83;;;;;;;;;;5055301;28;20044;-76
2022/08/30 13:31:54;;;;;;;3.22;2.13;;;;;;;;;;5054707;28;20371;-75
2022/08/30 13:34:21;;;;;;;2.42;1.90;;;;;;;;;;5054868;28;20021;-76
2022/08/30 13:36:54;;;;;;;2.30;1.90;;;;;;;;;;5054065;28;20465;-76
2022/08/30 13:39:19;;;;;;;7.28;2.17;;;;;;;;;;5055171;28;20025;-76
2022/08/30 13:41:45;;;;;;;3.65;1.90;;;;;;;;;;5054728;28;20029;-77
2022/08/30 13:44:10;;;;;;;2.83;2.20;;;;;;;;;;5054656;28;20150;-75
2022/08/30 13:46:38;;;;;;;4.05;1.90;;;;;;;;;;5054337;28;20025;-75
2022/08/30 13:49:07;;;;;;;4.18;1.80;;;;;;;;;;5054781;28;20036;-75
2022/08/30 13:51:32;;;;;;;2.60;1.90;;;;;;;;;;5054208;28;20025;-75
2022/08/30 13:53:59;;;;;;;3.73;1.90;;;;;;;;;;5054025;28;20040;-76
2022/08/30 13:56:30;;;;;;;3.10;2.00;;;;;;;;;;5053376;28;20274;-75
2022/08/30 13:58:55;;;;;;;2.17;1.80;;;;;;;;;;5054249;28;20493;-76
2022/08/30 14:01:20;;;;;;;4.68;1.70;;;;;;;;;;5053887;28;20021;-76
2022/08/30 14:03:46;;;;;;;8.87;1.80;;;;;;;;;;5053547;28;20036;-76
2022/08/30 14:06:11;;;;;;;2.67;1.92;;;;;;;;;;5052335;28;20282;-75
2022/08/30 14:08:37;;;;;;;5.10;1.63;;;;;;;;;;5053845;28;20032;-76
2022/08/30 14:11:02;;;;;;;2.95;1.70;;;;;;;;;;5053362;28;20250;-75
2022/08/30 14:13:28;;;;;;;2.45;1.75;;;;;;;;;;5053658;28;20433;-75
2022/08/30 14:15:55;;;;;;;1.70;1.60;;;;;;;;;;5053224;28;20382;-75
2022/08/30 14:18:20;;;;;;;4.68;1.80;;;;;;;;;;5052107;28;20033;-75
2022/08/30 14:20:46;;;;;;;2.73;1.80;;;;;;;;;;5054319;28;20051;-75
2022/08/30 14:23:12;;;;;;;4.45;1.92;;;;;;;;;;5054055;28;20268;-75
2022/08/30 14:25:37;;;;;;;3.65;1.92;;;;;;;;;;5053167;28;20436;-75
2022/08/30 14:28:02;;;;;;;4.53;1.80;;;;;;;;;;5052783;28;20474;-75
2022/08/30 14:30:27;;;;;;;2.88;1.90;;;;;;;;;;5053775;28;20103;-75
2022/08/30 14:32:53;;;;;;;4.30;1.90;;;;;;;;;;5053670;28;20362;-75
2022/08/30 14:35:19;;;;;;;1.90;1.60;;;;;;;;;;5053651;28;20262;-75
2022/08/30 14:37:46;;;;;;;3.70;1.77;;;;;;;;;;5053378;28;20315;-75
2022/08/30 14:40:11;;;;;;;1.88;1.60;;;;;;;;;;5053182;28;20090;-75
2022/08/30 14:42:36;;;;;;;2.85;1.80;;;;;;;;;;5053970;28;20466;-74
2022/08/30 14:45:02;;;;;;;2.45;1.67;;;;;;;;;;5057193;28;20440;-74
2022/08/30 14:47:28;;;;;;;4.32;1.95;;;;;;;;;;5056918;28;20108;-75
2022/08/30 14:49:57;;;;;;;2.10;1.70;;;;;;;;;;5057694;28;20025;-75
2022/08/30 14:52:23;;;;;;;2.65;1.88;;;;;;;;;;5055722;28;20782;-75
2022/08/30 14:54:48;;;;;;;2.78;1.70;;;;;;;;;;5057362;28;20039;-76
2022/08/30 14:57:13;;;;;;;2.57;1.90;;;;;;;;;;5057395;28;20052;-75
2022/08/30 14:59:38;;;;;;;6.87;1.77;;;;;;;;;;5056967;28;20280;-75
2022/08/30 15:02:04;;;;;;;2.83;1.70;;;;;;;;;;5056153;28;20258;-74
2022/08/30 15:04:29;;;;;;;3.15;1.90;;;;;;;;;;5057238;28;20108;-73